Time;durP1;ratioP1;P1;durP2;ratioP2;P2;SDS_P1;SDS_P2;PMS_P1;PMS_P2;Temp;Humidity;BMP_temperature;BMP_pressure;BME280_temperature;BME280_humidity;BME280_pressure;Samples;Min_cycle;Max_cycle;Signal;HPM_P1;HPM_P2
2023/04/19 00:00:43;;;;;;;33.93;17.53;;;9.90;99.90;;;;;;5042092;28;20293;-68
2023/04/19 00:03:10;;;;;;;35.17;17.73;;;9.90;99.90;;;;;;5047548;28;20194;-68
2023/04/19 00:05:37;;;;;;;32.47;16.60;;;9.90;99.90;;;;;;5038512;28;20182;-68
2023/04/19 00:08:03;;;;;;;34.50;18.97;;;9.80;99.90;;;;;;5043050;28;20510;-68
2023/04/19 00:10:29;;;;;;;29.17;17.40;;;9.80;99.90;;;;;;5079250;28;20197;-68
2023/04/19 00:12:55;;;;;;;32.80;18.70;;;9.80;99.90;;;;;;5054456;28;20179;-68
2023/04/19 00:15:20;;;;;;;35.90;18.40;;;9.80;99.90;;;;;;5050618;28;20183;-68
2023/04/19 00:17:46;;;;;;;29.90;17.53;;;9.80;99.90;;;;;;5052441;28;20237;-68
2023/04/19 00:20:12;;;;;;;37.33;19.63;;;9.80;99.90;;;;;;5066742;28;20187;-68
2023/04/19 00:22:38;;;;;;;32.77;18.90;;;9.60;99.90;;;;;;5053326;28;20340;-68
2023/04/19 00:25:04;;;;;;;32.93;18.33;;;9.60;99.90;;;;;;5042517;28;20210;-68
2023/04/19 00:27:30;;;;;;;28.50;17.10;;;9.80;99.90;;;;;;5054732;28;20174;-69
2023/04/19 00:29:56;;;;;;;31.63;19.43;;;9.80;99.90;;;;;;5043885;28;20193;-69
2023/04/19 00:32:22;;;;;;;32.07;18.17;;;9.70;99.90;;;;;;5042137;28;20263;-69
2023/04/19 00:34:48;;;;;;;29.23;18.17;;;9.60;99.90;;;;;;5050790;28;20229;-69
2023/04/19 00:37:14;;;;;;;32.10;18.80;;;9.60;99.90;;;;;;5053616;28;20275;-69
2023/04/19 00:39:40;;;;;;;32.17;18.10;;;9.50;99.90;;;;;;5053153;28;20174;-69
2023/04/19 00:42:06;;;;;;;31.63;20.40;;;9.40;99.90;;;;;;5046316;28;20292;-69
2023/04/19 00:44:32;;;;;;;31.03;18.90;;;9.40;99.90;;;;;;5054244;28;20189;-69
2023/04/19 00:46:59;;;;;;;28.37;17.30;;;9.40;99.90;;;;;;5050431;28;20237;-68
2023/04/19 00:49:26;;;;;;;32.80;18.53;;;9.40;99.90;;;;;;5041110;28;20205;-69
2023/04/19 00:51:52;;;;;;;33.77;20.03;;;9.40;99.90;;;;;;5044696;28;20653;-69
2023/04/19 00:54:18;;;;;;;29.60;17.33;;;9.40;99.90;;;;;;5053027;28;20194;-69
2023/04/19 00:56:45;;;;;;;33.73;18.53;;;9.30;99.90;;;;;;5048137;28;20199;-69
2023/04/19 00:59:13;;;;;;;34.50;19.53;;;9.30;99.90;;;;;;5050890;28;20182;-69
2023/04/19 01:01:39;;;;;;;33.33;17.83;;;9.30;99.90;;;;;;5046593;28;20712;-69
2023/04/19 01:04:05;;;;;;;33.90;18.97;;;9.30;99.90;;;;;;5053719;28;20190;-68
2023/04/19 01:06:32;;;;;;;32.07;19.43;;;9.20;99.90;;;;;;5050633;28;20182;-67
2023/04/19 01:09:00;;;;;;;32.63;19.57;;;9.20;99.90;;;;;;5044522;28;20222;-67
2023/04/19 01:11:27;;;;;;;33.00;17.23;;;9.30;99.90;;;;;;5037700;28;20583;-69
2023/04/19 01:13:54;;;;;;;37.70;18.20;;;9.30;99.90;;;;;;5052123;28;20563;-68
2023/04/19 01:16:20;;;;;;;31.70;18.60;;;9.30;99.90;;;;;;5053571;28;20209;-69
2023/04/19 01:18:45;;;;;;;34.37;19.43;;;9.20;99.90;;;;;;5053384;28;20260;-68
2023/04/19 01:21:11;;;;;;;32.10;18.60;;;9.20;99.90;;;;;;5044009;28;20667;-68
2023/04/19 01:23:38;;;;;;;36.33;18.47;;;9.20;99.90;;;;;;5042933;28;20197;-68
2023/04/19 01:26:04;;;;;;;32.33;18.40;;;9.20;99.90;;;;;;5051730;28;20205;-68
2023/04/19 01:28:30;;;;;;;32.87;19.67;;;9.00;99.90;;;;;;5041872;28;20516;-68
2023/04/19 01:30:55;;;;;;;32.33;18.37;;;9.00;99.90;;;;;;5051814;28;20268;-69
2023/04/19 01:33:21;;;;;;;33.50;17.90;;;9.00;99.90;;;;;;5051819;28;20186;-68
2023/04/19 01:35:48;;;;;;;32.13;17.77;;;9.00;99.90;;;;;;5053499;28;20178;-68
2023/04/19 01:38:17;;;;;;;33.10;19.87;;;9.00;99.90;;;;;;5049594;28;20182;-67
2023/04/19 01:40:43;;;;;;;27.33;17.77;;;9.00;99.90;;;;;;5048363;28;20209;-68
2023/04/19 01:43:12;;;;;;;35.27;18.77;;;9.00;99.90;;;;;;5053338;28;20186;-68
2023/04/19 01:45:38;;;;;;;31.27;18.70;;;9.10;99.90;;;;;;5056490;28;20186;-68
2023/04/19 01:48:04;;;;;;;34.37;18.60;;;9.20;99.90;;;;;;5053262;28;20182;-68
2023/04/19 01:50:30;;;;;;;30.70;18.73;;;9.40;99.90;;;;;;5052552;28;20210;-69
2023/04/19 01:52:56;;;;;;;31.20;17.57;;;9.40;99.90;;;;;;5045999;28;20236;-69
2023/04/19 01:55:22;;;;;;;36.53;20.23;;;9.40;99.90;;;;;;5044417;28;20209;-68
2023/04/19 01:57:48;;;;;;;33.97;17.90;;;9.40;99.90;;;;;;5052514;28;20196;-68
2023/04/19 02:00:14;;;;;;;29.47;19.27;;;9.40;99.90;;;;;;5034579;28;20186;-68
2023/04/19 02:02:40;;;;;;;35.17;18.63;;;9.40;99.90;;;;;;5051604;28;20189;-68
2023/04/19 02:05:06;;;;;;;32.90;19.00;;;9.50;99.90;;;;;;5048572;28;20246;-68
2023/04/19 02:07:32;;;;;;;32.73;17.90;;;9.60;99.90;;;;;;5038978;28;20662;-68
2023/04/19 02:09:59;;;;;;;36.93;19.70;;;9.50;99.90;;;;;;5040718;28;20186;-68
2023/04/19 02:12:29;;;;;;;28.63;16.90;;;9.60;99.90;;;;;;5051666;28;20533;-68
2023/04/19 02:14:59;;;;;;;32.17;18.80;;;9.50;99.90;;;;;;5032619;28;20174;-68
2023/04/19 02:17:24;;;;;;;31.17;17.57;;;9.60;99.90;;;;;;5067581;28;20258;-69
2023/04/19 02:19:51;;;;;;;31.97;17.93;;;9.60;99.90;;;;;;5041150;28;20175;-69
2023/04/19 02:22:17;;;;;;;35.80;19.60;;;9.60;99.90;;;;;;5039620;28;20632;-68
2023/04/19 02:24:43;;;;;;;30.17;18.47;;;9.70;99.90;;;;;;5053086;28;20189;-68
2023/04/19 02:27:09;;;;;;;30.23;18.70;;;9.70;99.90;;;;;;5051281;28;20186;-68
2023/04/19 02:29:34;;;;;;;30.30;17.20;;;9.70;99.90;;;;;;5051191;28;20198;-68
2023/04/19 02:32:04;;;;;;;33.20;19.80;;;9.70;99.90;;;;;;5052081;28;20186;-68
2023/04/19 02:34:30;;;;;;;33.27;20.03;;;10.00;99.90;;;;;;5043563;28;20174;-69
2023/04/19 02:36:56;;;;;;;28.80;18.50;;;10.00;99.90;;;;;;5049522;28;20186;-68
2023/04/19 02:39:22;;;;;;;34.20;18.63;;;10.00;99.90;;;;;;5050494;28;20666;-68
2023/04/19 02:41:48;;;;;;;27.23;16.47;;;10.00;99.90;;;;;;5052165;28;20264;-69
2023/04/19 02:44:14;;;;;;;25.73;17.03;;;10.00;99.90;;;;;;5051239;28;20220;-68
2023/04/19 02:46:40;;;;;;;30.20;17.50;;;10.00;99.90;;;;;;5051276;28;20213;-68
2023/04/19 02:49:05;;;;;;;36.63;18.60;;;10.10;99.90;;;;;;5050734;28;20643;-70
2023/04/19 02:51:31;;;;;;;30.10;18.30;;;10.10;99.90;;;;;;5058177;28;20706;-68
2023/04/19 02:53:57;;;;;;;29.70;17.30;;;10.00;99.90;;;;;;5052113;28;20182;-68
2023/04/19 02:56:22;;;;;;;36.57;18.53;;;10.00;99.90;;;;;;5051319;28;20185;-68
2023/04/19 02:58:48;;;;;;;29.97;18.30;;;10.00;99.90;;;;;;5041780;28;20207;-68
2023/04/19 03:01:14;;;;;;;31.97;17.43;;;10.00;99.90;;;;;;5049744;28;20213;-68
2023/04/19 03:03:40;;;;;;;31.13;18.33;;;10.00;99.90;;;;;;5052328;28;20236;-68
2023/04/19 03:06:06;;;;;;;31.80;17.57;;;10.20;99.90;;;;;;5040511;28;20178;-68
2023/04/19 03:08:32;;;;;;;26.33;17.30;;;10.20;99.90;;;;;;5050223;28;20277;-68
2023/04/19 03:10:58;;;;;;;32.97;18.83;;;10.20;99.90;;;;;;5046490;28;20278;-68
2023/04/19 03:13:23;;;;;;;30.40;18.10;;;10.20;99.90;;;;;;5052261;28;20517;-68
2023/04/19 03:15:49;;;;;;;29.47;17.07;;;10.20;99.90;;;;;;5051980;28;20186;-68
2023/04/19 03:18:16;;;;;;;30.60;17.50;;;10.20;99.90;;;;;;5047067;28;20226;-68
2023/04/19 03:20:42;;;;;;;31.10;18.53;;;10.20;99.90;;;;;;5051131;28;20655;-68
2023/04/19 03:23:08;;;;;;;29.03;15.80;;;10.10;99.90;;;;;;5051854;28;20287;-68
2023/04/19 03:25:33;;;;;;;26.50;16.43;;;10.20;99.90;;;;;;5051690;28;20213;-68
2023/04/19 03:27:59;;;;;;;30.70;18.73;;;10.20;99.90;;;;;;5050943;28;20638;-68
2023/04/19 03:30:25;;;;;;;29.27;17.17;;;10.30;99.90;;;;;;5051359;28;20190;-69
2023/04/19 03:32:51;;;;;;;36.20;18.97;;;10.20;99.90;;;;;;5050646;28;20293;-68
2023/04/19 03:35:20;;;;;;;28.93;17.20;;;10.20;99.90;;;;;;5045672;28;20699;-68
2023/04/19 03:37:45;;;;;;;29.93;16.43;;;10.20;99.90;;;;;;5041365;28;20228;-67
2023/04/19 03:40:11;;;;;;;29.23;18.67;;;10.10;99.90;;;;;;5046654;28;20659;-67
2023/04/19 03:42:37;;;;;;;31.37;17.77;;;10.30;99.90;;;;;;5049620;28;20224;-68
2023/04/19 03:45:03;;;;;;;29.70;18.10;;;10.20;99.90;;;;;;5076440;28;20216;-68
2023/04/19 03:47:28;;;;;;;30.70;18.37;;;10.20;99.90;;;;;;5053195;28;20569;-69
2023/04/19 03:49:54;;;;;;;28.23;17.63;;;10.20;99.90;;;;;;5055662;28;20186;-68
2023/04/19 03:52:20;;;;;;;31.97;16.87;;;10.30;99.90;;;;;;5055453;28;20200;-68
2023/04/19 03:54:45;;;;;;;25.30;16.70;;;10.30;99.90;;;;;;5053692;28;20186;-68
2023/04/19 03:57:14;;;;;;;28.30;18.00;;;10.40;99.90;;;;;;5047501;28;20266;-69
2023/04/19 03:59:39;;;;;;;28.57;17.03;;;10.30;99.90;;;;;;5051495;28;20209;-68
2023/04/19 04:02:06;;;;;;;31.93;16.97;;;10.20;99.90;;;;;;5046159;28;20249;-68
2023/04/19 04:04:31;;;;;;;31.63;17.77;;;10.20;99.90;;;;;;5049540;28;20182;-68
2023/04/19 04:06:57;;;;;;;27.37;15.23;;;10.20;99.90;;;;;;5046828;28;20235;-68
2023/04/19 04:09:22;;;;;;;28.10;16.60;;;10.10;99.90;;;;;;5049941;28;20267;-68
2023/04/19 04:11:48;;;;;;;26.93;15.90;;;10.10;99.90;;;;;;5055529;28;20194;-68
2023/04/19 04:14:14;;;;;;;26.40;16.13;;;10.10;99.90;;;;;;5084249;28;20194;-68
2023/04/19 04:16:40;;;;;;;31.33;17.37;;;10.00;99.90;;;;;;5054897;28;20583;-68
2023/04/19 04:19:06;;;;;;;30.57;16.93;;;10.00;99.90;;;;;;5050245;28;20182;-68
2023/04/19 04:21:32;;;;;;;30.13;18.70;;;10.00;99.90;;;;;;5048579;28;20198;-68
2023/04/19 04:24:00;;;;;;;32.83;19.87;;;10.10;99.90;;;;;;5049449;28;20236;-68
2023/04/19 04:26:29;;;;;;;29.07;18.33;;;10.00;99.90;;;;;;5053634;28;20193;-68
2023/04/19 04:28:56;;;;;;;24.57;16.67;;;10.00;99.90;;;;;;5050522;28;20217;-68
2023/04/19 04:31:22;;;;;;;27.80;17.70;;;9.90;99.90;;;;;;5045430;28;20182;-69
2023/04/19 04:33:47;;;;;;;30.67;17.10;;;9.90;99.90;;;;;;5046248;28;20190;-68
2023/04/19 04:36:13;;;;;;;34.63;17.77;;;9.80;99.90;;;;;;5070120;28;20197;-67
2023/04/19 04:38:39;;;;;;;34.30;17.90;;;9.80;99.90;;;;;;5054513;28;20213;-68
2023/04/19 04:41:05;;;;;;;29.00;15.50;;;9.70;99.90;;;;;;5050259;28;20249;-68
2023/04/19 04:43:31;;;;;;;28.70;16.73;;;9.70;99.90;;;;;;5054512;28;20188;-69
2023/04/19 04:45:56;;;;;;;27.57;15.93;;;9.70;99.90;;;;;;5050095;28;20255;-68
2023/04/19 04:48:22;;;;;;;33.90;17.93;;;9.70;99.90;;;;;;5038101;28;20193;-68
2023/04/19 04:50:48;;;;;;;26.33;16.10;;;9.70;99.90;;;;;;5040972;28;20197;-70
2023/04/19 04:53:14;;;;;;;31.20;17.40;;;9.70;99.90;;;;;;5050369;28;20569;-69
2023/04/19 04:55:40;;;;;;;29.10;18.57;;;9.80;99.90;;;;;;5044488;28;20183;-69
2023/04/19 04:58:06;;;;;;;33.37;18.80;;;9.80;99.90;;;;;;5048599;28;20182;-68
2023/04/19 05:00:31;;;;;;;36.03;18.50;;;9.70;99.90;;;;;;5052667;28;20202;-68
2023/04/19 05:02:58;;;;;;;26.97;16.77;;;9.80;99.90;;;;;;5053971;28;20637;-68
2023/04/19 05:05:24;;;;;;;31.73;18.00;;;9.80;99.90;;;;;;5048457;28;20201;-68
2023/04/19 05:07:50;;;;;;;33.13;18.13;;;9.80;99.90;;;;;;5046699;28;20193;-68
2023/04/19 05:10:15;;;;;;;30.47;18.17;;;9.80;99.90;;;;;;5053719;28;20178;-69
2023/04/19 05:12:41;;;;;;;31.33;18.10;;;9.70;99.90;;;;;;5050056;28;20178;-68
2023/04/19 05:15:07;;;;;;;30.13;16.70;;;9.60;99.90;;;;;;5052878;28;20186;-69
2023/04/19 05:17:33;;;;;;;32.17;18.30;;;9.70;99.90;;;;;;5049039;28;20230;-68
2023/04/19 05:19:59;;;;;;;30.40;17.80;;;9.70;99.90;;;;;;5053785;28;20236;-68
2023/04/19 05:22:26;;;;;;;31.97;18.47;;;9.70;99.90;;;;;;5053786;28;20205;-68
2023/04/19 05:24:51;;;;;;;30.57;16.60;;;9.80;99.90;;;;;;5052878;28;20183;-69
2023/04/19 05:27:17;;;;;;;32.23;18.73;;;9.90;99.90;;;;;;5052854;28;20383;-68
2023/04/19 05:29:43;;;;;;;32.47;18.50;;;9.80;99.90;;;;;;5084694;28;20209;-68
2023/04/19 05:32:09;;;;;;;31.17;17.97;;;9.90;99.90;;;;;;5051935;28;20225;-68
2023/04/19 05:34:35;;;;;;;34.60;19.53;;;9.90;99.90;;;;;;5053474;28;20181;-68
2023/04/19 05:37:02;;;;;;;36.50;19.53;;;9.90;99.90;;;;;;5053402;28;20186;-69
2023/04/19 05:39:28;;;;;;;35.53;18.27;;;9.90;99.90;;;;;;5053634;28;20243;-68
2023/04/19 05:41:53;;;;;;;34.77;19.30;;;9.90;99.90;;;;;;5049116;28;20297;-69
2023/04/19 05:44:19;;;;;;;32.97;19.50;;;10.00;99.90;;;;;;5053391;28;20606;-68
2023/04/19 05:46:45;;;;;;;33.50;20.10;;;9.90;99.90;;;;;;5047080;28;20182;-68
2023/04/19 05:49:10;;;;;;;30.97;19.67;;;10.00;99.90;;;;;;5069787;28;20185;-68
2023/04/19 05:51:36;;;;;;;33.80;19.67;;;10.00;99.90;;;;;;5044363;28;20243;-68
2023/04/19 05:54:02;;;;;;;33.47;19.20;;;10.10;99.90;;;;;;5051791;28;20222;-68
2023/04/19 05:56:28;;;;;;;32.07;19.60;;;10.30;99.90;;;;;;5044538;28;20190;-69
2023/04/19 05:58:58;;;;;;;36.67;20.07;;;10.40;99.90;;;;;;5040444;28;20266;-69
2023/04/19 06:01:24;;;;;;;33.70;18.90;;;10.50;99.90;;;;;;5052202;28;20340;-68
2023/04/19 06:03:51;;;;;;;35.73;19.17;;;10.50;99.90;;;;;;5053362;28;20197;-68
2023/04/19 06:06:18;;;;;;;32.33;18.63;;;10.40;99.90;;;;;;5048613;28;20214;-70
2023/04/19 06:08:44;;;;;;;27.93;16.97;;;10.50;99.90;;;;;;5049923;28;20220;-69
2023/04/19 06:11:10;;;;;;;34.05;20.13;;;10.60;99.90;;;;;;5053124;28;20626;-69
2023/04/19 06:13:35;;;;;;;35.57;20.43;;;10.70;99.90;;;;;;5051700;28;20190;-70
2023/04/19 06:16:02;;;;;;;27.50;17.47;;;10.70;99.90;;;;;;5052357;28;20182;-69
2023/04/19 06:18:27;;;;;;;31.33;19.20;;;10.70;99.90;;;;;;5052170;28;20221;-69
2023/04/19 06:20:53;;;;;;;27.65;16.02;;;10.70;99.90;;;;;;5051417;28;20198;-69
2023/04/19 06:23:19;;;;;;;33.40;18.45;;;10.80;99.90;;;;;;5052113;28;20532;-69
2023/04/19 06:25:47;;;;;;;35.95;20.45;;;10.80;99.90;;;;;;5081196;28;20542;-68
2023/04/19 06:28:13;;;;;;;29.47;17.67;;;11.00;99.90;;;;;;5048550;28;20692;-69
2023/04/19 06:30:39;;;;;;;31.02;17.95;;;11.20;99.90;;;;;;5035396;28;20265;-69
2023/04/19 06:33:05;;;;;;;28.27;17.13;;;11.20;99.90;;;;;;5047190;28;20190;-69
2023/04/19 06:35:31;;;;;;;28.42;17.27;;;11.10;99.90;;;;;;5042643;28;20259;-70
2023/04/19 06:37:57;;;;;;;29.65;17.23;;;11.10;99.90;;;;;;5052504;28;20188;-69
2023/04/19 06:40:24;;;;;;;28.65;16.83;;;11.20;99.90;;;;;;5047601;28;20261;-69
2023/04/19 06:42:49;;;;;;;32.63;16.85;;;11.20;99.90;;;;;;5083491;28;20194;-70
2023/04/19 06:45:15;;;;;;;28.25;16.92;;;11.40;99.90;;;;;;5051219;28;20264;-70
2023/04/19 06:47:41;;;;;;;30.00;17.65;;;11.60;99.90;;;;;;5050088;28;20190;-70
2023/04/19 06:50:07;;;;;;;30.38;16.08;;;11.70;99.90;;;;;;5050722;28;20178;-69
2023/04/19 06:52:33;;;;;;;24.65;15.43;;;11.60;99.90;;;;;;5051348;28;20186;-70
2023/04/19 06:54:58;;;;;;;27.23;17.10;;;11.70;99.90;;;;;;5051878;28;20282;-67
2023/04/19 06:57:24;;;;;;;24.60;17.83;;;11.80;99.90;;;;;;5051757;28;20239;-68
2023/04/19 06:59:49;;;;;;;31.67;16.42;;;11.80;99.90;;;;;;5046851;28;20546;-68
2023/04/19 07:02:15;;;;;;;27.23;16.08;;;11.80;99.90;;;;;;5050895;28;20593;-68
2023/04/19 07:04:41;;;;;;;27.17;16.02;;;11.90;99.90;;;;;;5050964;28;20194;-72
2023/04/19 07:07:06;;;;;;;25.27;15.88;;;12.00;99.90;;;;;;5059684;28;20191;-70
2023/04/19 07:09:32;;;;;;;23.58;15.05;;;12.00;99.90;;;;;;5050445;28;20189;-70
2023/04/19 07:11:58;;;;;;;21.25;14.68;;;12.10;99.90;;;;;;5081637;28;20215;-69
2023/04/19 07:14:23;;;;;;;25.45;15.60;;;12.30;99.90;;;;;;5042256;28;20547;-70
2023/04/19 07:16:49;;;;;;;23.55;15.32;;;12.50;99.90;;;;;;5064599;28;20187;-71
2023/04/19 07:19:18;;;;;;;27.33;14.90;;;12.60;99.90;;;;;;5068078;28;20185;-72
2023/04/19 07:21:43;;;;;;;23.63;16.33;;;12.60;99.90;;;;;;5052593;28;20198;-69
2023/04/19 07:24:09;;;;;;;19.45;13.38;;;12.60;99.90;;;;;;5054925;28;20197;-69
2023/04/19 07:26:35;;;;;;;26.70;14.98;;;12.80;99.90;;;;;;5055826;28;20182;-69
2023/04/19 07:29:00;;;;;;;23.60;14.10;;;12.70;99.90;;;;;;5055198;28;20193;-68
2023/04/19 07:31:27;;;;;;;27.05;15.40;;;12.70;99.90;;;;;;5053376;28;20239;-70
2023/04/19 07:33:53;;;;;;;25.88;15.85;;;12.60;99.90;;;;;;5054629;28;20193;-70
2023/04/19 07:36:20;;;;;;;21.85;14.40;;;12.70;99.90;;;;;;5053135;28;20189;-70
2023/04/19 07:38:46;;;;;;;21.38;14.85;;;13.00;99.90;;;;;;5053076;28;20284;-70
2023/04/19 07:41:12;;;;;;;24.52;14.57;;;13.30;99.90;;;;;;5049209;28;20198;-70
2023/04/19 07:43:37;;;;;;;23.38;14.13;;;13.90;99.90;;;;;;5038687;28;20186;-69
2023/04/19 07:46:11;;;;;;;24.45;13.60;;;14.40;99.90;;;;;;5046930;28;20182;-73
2023/04/19 07:48:37;;;;;;;26.38;14.75;;;14.90;99.90;;;;;;5049822;28;20185;-69
2023/04/19 07:51:13;;;;;;;22.27;14.23;;;14.90;99.90;;;;;;5052120;28;20270;-69
2023/04/19 07:53:43;;;;;;;19.20;12.02;;;14.60;99.90;;;;;;5048521;28;20232;-69
2023/04/19 07:56:10;;;;;;;20.42;12.73;;;14.70;99.90;;;;;;5046746;28;20522;-71
2023/04/19 07:58:36;;;;;;;19.00;11.90;;;16.00;99.90;;;;;;5054541;28;20537;-70
2023/04/19 08:01:03;;;;;;;19.98;12.30;;;16.80;99.90;;;;;;5054135;28;20201;-68
2023/04/19 08:03:29;;;;;;;17.80;11.73;;;16.70;99.90;;;;;;5053586;28;20198;-68
2023/04/19 08:05:55;;;;;;;20.65;12.25;;;17.10;99.90;;;;;;5045005;28;20182;-69
2023/04/19 08:08:21;;;;;;;18.92;11.98;;;17.60;99.90;;;;;;5049423;28;20182;-69
2023/04/19 08:10:46;;;;;;;16.17;10.55;;;18.10;99.90;;;;;;5042623;28;20236;-69
2023/04/19 08:13:12;;;;;;;15.00;10.77;;;17.50;99.90;;;;;;5055399;28;20185;-68
2023/04/19 08:15:38;;;;;;;19.92;11.25;;;17.80;99.90;;;;;;5055298;28;20651;-69
2023/04/19 08:18:04;;;;;;;15.93;10.70;;;17.80;99.90;;;;;;5054790;28;20714;-70
2023/04/19 08:20:31;;;;;;;15.25;11.35;;;17.90;99.90;;;;;;5087426;28;20214;-67
2023/04/19 08:22:57;;;;;;;15.27;10.40;;;18.30;99.90;;;;;;5047441;28;20240;-68
2023/04/19 08:25:27;;;;;;;13.60;9.98;;;18.70;99.90;;;;;;5046769;28;20181;-67
2023/04/19 08:27:54;;;;;;;15.00;10.55;;;18.80;99.90;;;;;;5045485;28;20265;-67
2023/04/19 08:30:19;;;;;;;13.27;9.73;;;18.70;99.90;;;;;;5048620;28;20186;-70
2023/04/19 08:32:45;;;;;;;14.07;10.40;;;18.40;99.90;;;;;;5085937;28;20201;-69
2023/04/19 08:35:12;;;;;;;11.30;9.05;;;17.80;99.90;;;;;;5044580;28;20183;-67
2023/04/19 08:37:37;;;;;;;13.35;9.68;;;18.00;99.90;;;;;;5053082;28;20190;-70
2023/04/19 08:40:04;;;;;;;15.02;10.85;;;18.40;99.90;;;;;;5036537;28;20269;-69
2023/04/19 08:42:32;;;;;;;12.98;8.88;;;18.20;99.90;;;;;;5052961;28;20243;-70
2023/04/19 08:45:02;;;;;;;16.15;10.00;;;18.40;99.90;;;;;;5044314;28;20240;-69
2023/04/19 08:47:28;;;;;;;10.48;9.02;;;18.40;99.90;;;;;;5071614;28;20556;-68
2023/04/19 08:49:55;;;;;;;14.43;9.50;;;18.90;99.90;;;;;;5045569;28;20239;-67
2023/04/19 08:52:23;;;;;;;14.77;10.05;;;18.70;99.90;;;;;;5053362;28;20190;-68
2023/04/19 08:54:50;;;;;;;12.75;8.85;;;18.60;99.90;;;;;;5043959;28;20240;-68
2023/04/19 08:57:16;;;;;;;17.20;9.23;;;17.90;99.90;;;;;;5050721;28;20231;-67
2023/04/19 08:59:44;;;;;;;14.93;8.73;;;17.80;99.90;;;;;;5048189;28;20182;-70
2023/04/19 09:02:10;;;;;;;14.73;9.23;;;17.60;99.90;;;;;;5052325;28;20198;-70
2023/04/19 09:04:35;;;;;;;11.48;8.38;;;17.50;99.90;;;;;;5058084;28;20194;-69
2023/04/19 09:07:01;;;;;;;14.93;10.15;;;16.70;99.90;;;;;;5056634;28;20174;-68
2023/04/19 09:09:29;;;;;;;12.63;9.52;;;16.20;99.90;;;;;;5048091;28;20614;-69
2023/04/19 09:11:56;;;;;;;13.57;9.38;;;15.90;99.90;;;;;;5048604;28;20643;-69
2023/04/19 09:14:24;;;;;;;11.10;8.32;;;15.60;99.90;;;;;;5068333;28;20189;-69
2023/04/19 09:16:51;;;;;;;12.20;8.30;;;15.50;99.90;;;;;;5047860;28;20647;-67
2023/04/19 09:19:17;;;;;;;12.73;9.48;;;15.30;99.90;;;;;;5050756;28;20184;-65
2023/04/19 09:21:43;;;;;;;13.82;9.65;;;15.50;99.90;;;;;;5052573;28;20208;-68
2023/04/19 09:24:09;;;;;;;11.38;8.98;;;15.80;99.90;;;;;;5046048;28;20193;-67
2023/04/19 09:26:36;;;;;;;14.10;9.95;;;16.10;99.90;;;;;;5040462;28;20174;-69
2023/04/19 09:29:04;;;;;;;11.52;8.80;;;15.70;99.90;;;;;;5046566;28;20185;-67
2023/04/19 09:31:34;;;;;;;9.88;8.23;;;15.60;99.90;;;;;;5046084;28;20709;-68
2023/04/19 09:34:16;;;;;;;10.77;8.10;;;15.50;99.90;;;;;;5033880;28;20251;-67
2023/04/19 09:36:42;;;;;;;8.77;7.47;;;15.60;99.90;;;;;;5046588;28;20170;-66
2023/04/19 09:39:09;;;;;;;10.88;7.28;;;15.50;99.90;;;;;;5049519;28;20217;-68
2023/04/19 09:41:49;;;;;;;8.85;6.97;;;15.50;99.90;;;;;;5043400;28;20199;-66
2023/04/19 09:44:15;;;;;;;10.15;7.32;;;15.80;99.90;;;;;;5041798;28;20531;-72
2023/04/19 09:46:41;;;;;;;11.43;7.80;;;15.90;99.90;;;;;;5055355;28;20306;-67
2023/04/19 09:49:17;;;;;;;10.65;7.25;;;15.70;99.90;;;;;;5050055;28;20170;-69
2023/04/19 09:51:45;;;;;;;10.55;6.93;;;16.00;99.90;;;;;;5052810;28;20209;-67
2023/04/19 09:54:12;;;;;;;12.18;8.77;;;16.10;99.90;;;;;;5051714;28;20174;-71
2023/04/19 09:56:38;;;;;;;9.65;8.43;;;16.20;99.90;;;;;;5045443;28;20643;-67
2023/04/19 09:59:05;;;;;;;12.60;9.15;;;16.10;99.90;;;;;;5055408;28;20182;-67
2023/04/19 10:01:34;;;;;;;9.23;7.43;;;16.40;99.90;;;;;;5052285;28;20209;-69
2023/04/19 10:04:06;;;;;;;9.27;6.30;;;16.70;99.90;;;;;;5050920;28;20182;-68
2023/04/19 10:06:34;;;;;;;11.13;7.55;;;16.80;99.90;;;;;;5049747;28;20277;-69
2023/04/19 10:09:02;;;;;;;10.20;7.32;;;17.00;99.90;;;;;;5048514;28;20256;-70
2023/04/19 10:11:39;;;;;;;9.02;7.43;;;16.40;99.90;;;;;;5036507;28;20190;-69
2023/04/19 10:14:07;;;;;;;11.98;7.72;;;16.10;99.90;;;;;;5054298;28;20553;-66
2023/04/19 10:16:34;;;;;;;11.57;7.68;;;16.10;99.90;;;;;;5047048;28;20687;-68
2023/04/19 10:19:02;;;;;;;11.57;7.32;;;16.40;99.90;;;;;;5076018;28;20234;-65
2023/04/19 10:21:28;;;;;;;13.48;7.40;;;16.50;99.90;;;;;;5040090;28;20210;-70
2023/04/19 10:23:57;;;;;;;9.68;7.32;;;16.50;99.90;;;;;;5064162;28;20235;-67
2023/04/19 10:26:23;;;;;;;9.13;6.68;;;16.50;99.90;;;;;;5054325;28;20196;-68
2023/04/19 10:28:49;;;;;;;11.95;7.70;;;16.60;99.90;;;;;;5022987;28;20226;-66
2023/04/19 10:31:20;;;;;;;9.32;6.90;;;16.70;99.90;;;;;;5080193;28;20222;-67
2023/04/19 10:33:47;;;;;;;8.70;6.78;;;16.70;99.90;;;;;;5045027;28;20531;-69
2023/04/19 10:36:16;;;;;;;8.15;6.32;;;16.60;99.90;;;;;;5048311;28;20187;-68
2023/04/19 10:38:51;;;;;;;10.52;7.30;;;16.30;99.90;;;;;;5046885;28;20265;-69
2023/04/19 10:41:20;;;;;;;9.23;6.90;;;16.40;99.90;;;;;;5049541;28;20535;-68
2023/04/19 10:44:06;;;;;;;8.48;7.00;;;16.50;99.90;;;;;;5042410;28;20666;-72
2023/04/19 10:46:32;;;;;;;9.18;6.72;;;16.50;99.90;;;;;;5047399;28;20251;-68
2023/04/19 10:49:02;;;;;;;8.68;6.93;;;16.60;99.90;;;;;;5043582;28;20195;-66
2023/04/19 10:51:34;;;;;;;8.98;6.38;;;16.60;99.90;;;;;;5052282;28;20693;-66
2023/04/19 10:54:04;;;;;;;10.25;7.47;;;16.70;99.90;;;;;;5052440;28;20227;-67
2023/04/19 10:56:33;;;;;;;11.77;7.13;;;16.60;99.90;;;;;;5049102;28;20189;-67
2023/04/19 10:59:09;;;;;;;8.80;7.13;;;16.30;99.90;;;;;;5045405;28;20190;-67
2023/04/19 11:01:44;;;;;;;9.30;7.40;;;16.50;99.90;;;;;;5050841;28;20223;-64
2023/04/19 11:04:21;;;;;;;9.80;6.82;;;16.40;99.90;;;;;;5052071;28;20178;-66
2023/04/19 11:06:50;;;;;;;10.13;7.00;;;16.20;99.90;;;;;;5052441;28;20213;-65
2023/04/19 11:09:25;;;;;;;10.05;6.97;;;16.40;99.90;;;;;;5042993;28;20269;-66
2023/04/19 11:11:58;;;;;;;11.18;7.90;;;16.40;99.90;;;;;;5051139;28;20243;-67
2023/04/19 11:14:25;;;;;;;9.68;6.93;;;16.40;99.90;;;;;;5051191;28;20188;-70
2023/04/19 11:16:51;;;;;;;9.98;7.38;;;16.40;99.90;;;;;;5051762;28;20596;-65
2023/04/19 11:19:17;;;;;;;10.32;6.32;;;16.30;99.90;;;;;;5050749;28;20189;-67
2023/04/19 11:21:45;;;;;;;10.35;6.03;;;16.30;99.90;;;;;;5051982;28;20210;-67
2023/04/19 11:24:11;;;;;;;8.23;6.38;;;16.40;99.90;;;;;;5043621;28;20201;-66
2023/04/19 11:26:37;;;;;;;8.77;6.18;;;16.70;99.90;;;;;;5038932;28;20191;-67
2023/04/19 11:29:05;;;;;;;10.98;8.18;;;16.90;99.90;;;;;;5050861;28;20235;-67
2023/04/19 11:31:34;;;;;;;10.30;7.20;;;16.90;99.90;;;;;;5044054;28;20186;-66
2023/04/19 11:34:01;;;;;;;11.88;6.78;;;16.80;99.90;;;;;;5047536;28;20190;-69
2023/04/19 11:36:27;;;;;;;11.02;7.75;;;17.10;99.90;;;;;;5039553;28;20194;-66
2023/04/19 11:38:53;;;;;;;12.95;9.35;;;17.30;99.90;;;;;;5036692;28;20190;-66
2023/04/19 11:41:18;;;;;;;13.30;8.93;;;17.30;99.90;;;;;;5080906;28;20217;-64
2023/04/19 11:43:45;;;;;;;14.55;9.13;;;17.30;99.90;;;;;;5047859;28;20232;-65
2023/04/19 11:46:12;;;;;;;13.65;9.25;;;17.00;99.90;;;;;;5045423;28;20193;-66
2023/04/19 11:48:48;;;;;;;12.70;8.88;;;16.90;99.90;;;;;;5040206;28;20778;-68
2023/04/19 11:51:14;;;;;;;13.70;8.85;;;16.90;99.90;;;;;;5048692;28;20182;-66
2023/04/19 11:53:40;;;;;;;10.23;8.02;;;16.50;99.90;;;;;;5035779;28;20191;-67
2023/04/19 11:56:07;;;;;;;9.63;7.28;;;16.70;99.90;;;;;;5051284;28;20260;-67
2023/04/19 11:58:38;;;;;;;9.23;6.45;;;16.80;99.90;;;;;;5051769;28;20186;-66
2023/04/19 12:01:12;;;;;;;9.23;6.07;;;16.70;99.90;;;;;;5044066;28;20206;-67
2023/04/19 12:03:44;;;;;;;6.88;6.18;;;16.80;99.90;;;;;;5082068;28;20294;-66
2023/04/19 12:06:15;;;;;;;9.40;6.00;;;16.60;99.90;;;;;;5038323;28;20184;-66
2023/04/19 12:08:50;;;;;;;9.70;6.75;;;16.50;99.90;;;;;;5047964;28;20697;-65
2023/04/19 12:11:20;;;;;;;11.90;6.63;;;16.40;99.90;;;;;;5082040;28;20648;-66
2023/04/19 12:13:47;;;;;;;7.90;7.07;;;16.20;99.90;;;;;;5046415;28;20226;-68
2023/04/19 12:16:12;;;;;;;11.27;7.65;;;16.40;99.90;;;;;;5052133;28;20178;-65
2023/04/19 12:18:49;;;;;;;11.52;6.68;;;16.60;99.90;;;;;;5047718;28;20651;-69
2023/04/19 12:21:27;;;;;;;7.43;6.35;;;16.70;99.90;;;;;;5045025;28;20658;-65
2023/04/19 12:23:57;;;;;;;13.18;6.13;;;16.80;99.90;;;;;;5051096;28;20181;-69
2023/04/19 12:26:29;;;;;;;8.48;5.78;;;16.60;99.90;;;;;;5045805;28;20249;-67
2023/04/19 12:28:56;;;;;;;7.93;6.22;;;16.50;99.90;;;;;;5054829;28;20222;-67
2023/04/19 12:31:22;;;;;;;8.60;5.70;;;16.50;99.90;;;;;;5054878;28;20193;-67